Time;durP1;ratioP1;P1;durP2;ratioP2;P2;SDS_P1;SDS_P2;PMS_P1;PMS_P2;Temp;Humidity;BMP_temperature;BMP_pressure;BME280_temperature;BME280_humidity;BME280_pressure;Samples;Min_cycle;Max_cycle;Signal;HPM_P1;HPM_P2
2022/12/26 00:01:28;;;;;;;13.50;5.70;;;;;;;9.93;100.00;100756.66;5059293;28;20490;-72
2022/12/26 00:03:54;;;;;;;9.55;5.57;;;;;;;9.98;100.00;100758.78;5056881;28;20043;-72
2022/12/26 00:06:24;;;;;;;21.20;4.88;;;;;;;10.13;100.00;100759.84;5063650;28;20102;-74
2022/12/26 00:08:50;;;;;;;10.75;4.70;;;;;;;10.04;100.00;100761.59;5066147;28;20482;-73
2022/12/26 00:11:16;;;;;;;13.70;5.10;;;;;;;10.01;100.00;100761.06;5058428;28;20037;-73
2022/12/26 00:13:43;;;;;;;10.02;4.60;;;;;;;9.93;100.00;100765.22;5041661;28;20024;-73
2022/12/26 00:16:11;;;;;;;6.82;4.18;;;;;;;9.90;100.00;100752.56;5062500;28;20028;-73
2022/12/26 00:18:37;;;;;;;12.10;5.03;;;;;;;9.87;100.00;100759.84;5063273;28;20040;-73
2022/12/26 00:21:03;;;;;;;11.02;4.68;;;;;;;9.88;100.00;100761.47;5080787;28;20035;-72
2022/12/26 00:23:31;;;;;;;11.30;5.03;;;;;;;9.87;100.00;100760.66;5047102;28;20127;-72
2022/12/26 00:26:04;;;;;;;10.23;4.60;;;;;;;9.87;100.00;100765.00;5058792;28;20189;-73
2022/12/26 00:28:30;;;;;;;12.23;4.93;;;;;;;9.91;100.00;100767.16;5064695;28;20087;-73
2022/12/26 00:30:55;;;;;;;10.77;4.68;;;;;;;10.04;100.00;100778.88;5061110;28;20048;-73
2022/12/26 00:33:21;;;;;;;15.38;4.78;;;;;;;9.96;100.00;100765.88;5059350;28;20072;-73
2022/12/26 00:35:46;;;;;;;9.10;4.53;;;;;;;9.91;100.00;100780.13;5056316;28;20187;-73
2022/12/26 00:38:12;;;;;;;10.00;5.18;;;;;;;9.84;100.00;100783.47;5051545;28;20041;-74
2022/12/26 00:40:42;;;;;;;7.18;3.53;;;;;;;9.91;100.00;100784.50;5059963;28;20071;-73
2022/12/26 00:43:10;;;;;;;6.40;3.67;;;;;;;9.88;100.00;100800.31;5056577;28;20032;-73
2022/12/26 00:45:36;;;;;;;5.47;3.25;;;;;;;9.93;100.00;100796.31;5062475;28;20499;-73
2022/12/26 00:48:02;;;;;;;10.15;3.10;;;;;;;9.84;100.00;100791.25;5064406;28;20032;-72
2022/12/26 00:50:27;;;;;;;6.20;3.05;;;;;;;9.72;100.00;100803.63;5059546;28;20266;-72
2022/12/26 00:52:54;;;;;;;5.00;2.60;;;;;;;9.74;100.00;100823.22;5065164;28;20097;-73
2022/12/26 00:55:19;;;;;;;5.10;2.47;;;;;;;9.84;100.00;100820.53;5054218;28;20043;-73
2022/12/26 00:57:45;;;;;;;6.03;2.92;;;;;;;9.71;100.00;100813.13;5059605;28;20028;-73
2022/12/26 01:00:11;;;;;;;4.18;2.67;;;;;;;9.74;100.00;100814.63;5061361;28;20518;-73
2022/12/26 01:02:36;;;;;;;4.10;2.42;;;;;;;9.70;100.00;100824.47;5062083;28;20510;-73
2022/12/26 01:05:02;;;;;;;5.20;2.75;;;;;;;9.68;100.00;100828.16;5042822;28;20048;-73
2022/12/26 01:07:31;;;;;;;4.30;2.22;;;;;;;9.61;100.00;100835.72;5065417;28;20101;-73
2022/12/26 01:09:56;;;;;;;4.80;2.22;;;;;;;9.55;100.00;100828.56;5044672;28;20064;-73
2022/12/26 01:12:22;;;;;;;6.70;2.53;;;;;;;9.58;100.00;100830.03;5059759;28;20052;-72
2022/12/26 01:14:47;;;;;;;7.00;2.40;;;;;;;9.60;100.00;100848.81;5061235;28;20039;-73
2022/12/26 01:17:13;;;;;;;3.15;2.28;;;;;;;9.63;100.00;100840.75;5058337;28;20029;-73
2022/12/26 01:19:38;;;;;;;5.43;2.53;;;;;;;9.53;100.00;100826.13;5057005;28;20147;-73
2022/12/26 01:22:04;;;;;;;6.18;2.53;;;;;;;9.64;100.00;100819.06;5056158;28;20049;-73
2022/12/26 01:24:29;;;;;;;6.20;2.20;;;;;;;9.51;100.00;100829.78;5056986;28;20055;-73
2022/12/26 01:26:55;;;;;;;3.95;2.30;;;;;;;9.62;100.00;100850.28;5054690;28;20032;-73
2022/12/26 01:29:20;;;;;;;3.30;2.10;;;;;;;9.57;100.00;100855.13;5061145;28;20032;-73
2022/12/26 01:31:46;;;;;;;3.10;2.03;;;;;;;9.51;100.00;100850.50;5062418;28;20040;-73
2022/12/26 01:34:11;;;;;;;3.83;2.10;;;;;;;9.48;100.00;100846.44;5058625;28;20040;-72
2022/12/26 01:36:36;;;;;;;3.22;2.25;;;;;;;9.61;100.00;100855.63;5057885;28;20029;-73
2022/12/26 01:39:02;;;;;;;5.68;2.10;;;;;;;9.63;100.00;100846.75;5055677;28;20032;-73
2022/12/26 01:41:29;;;;;;;3.15;1.80;;;;;;;9.53;100.00;100836.47;5058705;28;20072;-73
2022/12/26 01:44:25;;;;;;;3.13;2.05;;;;;;;9.49;100.00;100844.66;5058721;28;20458;-73
2022/12/26 01:46:50;;;;;;;4.00;2.00;;;;;;;9.54;100.00;100856.19;5064842;28;20124;-73
2022/12/26 01:49:34;;;;;;;4.32;2.40;;;;;;;9.64;100.00;100857.91;5058857;28;20112;-73
2022/12/26 01:52:05;;;;;;;3.75;2.20;;;;;;;9.53;100.00;100848.56;5055757;28;20556;-73
2022/12/26 01:54:34;;;;;;;3.55;1.95;;;;;;;9.47;100.00;100838.81;5062442;28;20041;-72
2022/12/26 01:57:10;;;;;;;8.43;2.80;;;;;;;9.47;100.00;100839.63;5064366;28;20036;-75
2022/12/26 01:59:37;;;;;;;5.30;2.42;;;;;;;9.50;100.00;100829.00;5057894;28;20454;-75
2022/12/26 02:02:03;;;;;;;4.40;2.65;;;;;;;9.49;100.00;100832.56;5063119;28;20047;-74
2022/12/26 02:07:20;;;;;;;5.97;2.72;;;;;;;9.46;100.00;100858.72;5062511;28;20043;-75
2022/12/26 02:09:45;;;;;;;18.23;4.65;;;;;;;9.49;100.00;100861.03;5058795;28;20036;-74
2022/12/26 02:12:22;;;;;;;7.57;3.35;;;;;;;9.45;100.00;100866.63;5048117;28;20309;-74
2022/12/26 02:14:48;;;;;;;6.18;3.35;;;;;;;9.64;100.00;100873.44;5047976;28;20505;-74
2022/12/26 02:17:15;;;;;;;5.47;3.75;;;;;;;9.57;100.00;100864.63;5043152;28;20487;-74
2022/12/26 02:20:11;;;;;;;8.05;3.40;;;;;;;9.53;100.00;100874.47;5062224;28;20032;-74
2022/12/26 02:22:52;;;;;;;6.63;3.50;;;;;;;9.51;100.00;100859.09;5064006;28;20134;-74
2022/12/26 02:25:23;;;;;;;12.55;4.18;;;;;;;9.60;100.00;100859.97;5062044;28;20123;-74
2022/12/26 02:28:06;;;;;;;6.82;3.90;;;;;;;9.65;100.00;100869.91;5059854;28;20116;-74
2022/12/26 02:30:49;;;;;;;10.45;4.15;;;;;;;9.68;100.00;100879.94;5076032;28;20060;-74
2022/12/26 02:33:36;;;;;;;7.78;4.25;;;;;;;9.66;100.00;100887.06;5060601;28;20148;-75
2022/12/26 02:36:16;;;;;;;8.25;4.00;;;;;;;9.67;100.00;100904.22;5055281;28;20057;-74
2022/12/26 02:38:48;;;;;;;7.75;3.55;;;;;;;9.65;100.00;100903.56;5072052;28;20041;-74
2022/12/26 02:41:50;;;;;;;8.25;3.10;;;;;;;9.54;100.00;100897.63;5058634;28;20025;-75
2022/12/26 02:47:20;;;;;;;4.22;2.90;;;;;;;9.60;100.00;100900.59;5056895;28;20518;-75
2022/12/26 03:13:22;;;;;;;9.07;5.18;;;;;;;9.35;100.00;100869.28;5053291;28;20048;-74
2022/12/26 03:18:56;;;;;;;7.18;4.60;;;;;;;9.47;100.00;100886.22;5055640;28;20429;-74
2022/12/26 03:21:27;;;;;;;7.80;4.63;;;;;;;9.40;100.00;100887.78;5043835;28;20021;-74
2022/12/26 03:23:55;;;;;;;6.82;4.22;;;;;;;9.27;100.00;100890.72;5059974;28;20060;-74
2022/12/26 03:26:39;;;;;;;6.80;4.38;;;;;;;9.30;100.00;100882.66;5056504;28;20040;-74
2022/12/26 03:32:01;;;;;;;5.72;3.70;;;;;;;9.32;100.00;100895.44;5062801;28;20620;-74
2022/12/26 03:34:27;;;;;;;9.48;4.78;;;;;;;9.33;100.00;100881.56;5051185;28;20490;-74
2022/12/26 03:37:01;;;;;;;6.18;3.60;;;;;;;9.35;100.00;100883.03;5061194;28;20512;-74
2022/12/26 04:20:43;;;;;;;5.22;2.97;;;;;;;8.99;100.00;100889.09;5060672;28;20044;-74
2022/12/26 04:45:56;;;;;;;7.25;3.83;;;;;;;8.94;100.00;100887.72;5057902;28;20576;-74
2022/12/26 04:51:06;;;;;;;7.32;4.30;;;;;;;8.88;100.00;100884.91;5063173;28;20040;-74
2022/12/26 04:53:31;;;;;;;7.15;4.70;;;;;;;8.90;100.00;100886.41;5061982;28;20068;-74
2022/12/26 04:55:57;;;;;;;7.25;4.05;;;;;;;8.91;100.00;100892.38;5034047;28;20892;-74
2022/12/26 04:58:23;;;;;;;9.07;4.30;;;;;;;8.88;100.00;100897.84;5062727;28;20402;-74
2022/12/26 05:00:49;;;;;;;7.00;4.47;;;;;;;8.80;100.00;100883.06;5062603;28;20043;-74
2022/12/26 05:11:32;;;;;;;8.43;4.43;;;;;;;8.76;100.00;100889.47;5063228;28;20060;-74
2022/12/26 05:13:59;;;;;;;6.97;5.03;;;;;;;8.73;100.00;100893.13;5058696;28;20039;-74
2022/12/26 05:30:22;;;;;;;8.00;4.70;;;;;;;8.83;100.00;100916.38;5055641;28;20115;-74
2022/12/26 05:35:32;;;;;;;11.30;4.97;;;;;;;8.85;100.00;100911.84;5060797;28;20039;-74
2022/12/26 05:37:58;;;;;;;9.35;5.50;;;;;;;8.86;100.00;100907.53;5078914;28;20033;-74
2022/12/26 05:40:24;;;;;;;6.60;4.50;;;;;;;8.77;100.00;100904.81;5062746;28;20040;-74
2022/12/26 05:42:49;;;;;;;9.32;5.50;;;;;;;8.83;100.00;100897.47;5058557;28;20037;-74
2022/12/26 05:45:15;;;;;;;9.68;5.10;;;;;;;8.75;100.00;100904.16;5054909;28;20033;-74
2022/12/26 05:47:40;;;;;;;8.55;5.03;;;;;;;8.70;100.00;100911.53;5056386;28;20028;-74
2022/12/26 05:50:06;;;;;;;10.00;5.18;;;;;;;8.76;100.00;100910.97;5061236;28;20043;-74
2022/12/26 05:52:32;;;;;;;8.70;5.30;;;;;;;8.74;100.00;100899.94;5077248;28;20113;-74
2022/12/26 05:54:57;;;;;;;10.18;6.03;;;;;;;8.80;100.00;100898.56;5059241;28;20029;-74
2022/12/26 05:57:23;;;;;;;11.93;5.57;;;;;;;8.79;100.00;100912.44;5056521;28;20490;-74
2022/12/26 05:59:48;;;;;;;8.18;5.13;;;;;;;8.72;100.00;100907.03;5055157;28;20047;-74
2022/12/26 06:02:14;;;;;;;8.68;5.40;;;;;;;8.70;100.00;100906.38;5057393;28;20024;-74
2022/12/26 06:04:39;;;;;;;8.25;4.68;;;;;;;8.67;100.00;100885.94;5058596;28;20041;-74
2022/12/26 06:07:04;;;;;;;9.50;4.95;;;;;;;8.73;100.00;100880.22;5061375;28;20037;-74
2022/12/26 06:09:30;;;;;;;10.35;4.68;;;;;;;8.74;100.00;100901.72;5053803;28;20032;-74
2022/12/26 06:11:55;;;;;;;9.05;4.93;;;;;;;8.83;100.00;100906.03;5059022;28;20063;-74
2022/12/26 06:14:22;;;;;;;8.82;4.03;;;;;;;8.83;100.00;100911.19;5057933;28;20537;-75
2022/12/26 06:16:47;;;;;;;8.10;3.67;;;;;;;8.88;100.00;100906.41;5060894;28;20016;-73
2022/12/26 06:19:12;;;;;;;9.00;3.88;;;;;;;8.80;100.00;100906.31;5057937;28;20541;-74
2022/12/26 06:21:38;;;;;;;10.10;4.20;;;;;;;8.81;100.00;100909.72;5057011;28;20025;-73
2022/12/26 06:24:04;;;;;;;5.28;3.90;;;;;;;8.79;100.00;100922.78;5056657;28;20534;-74
2022/12/26 06:26:29;;;;;;;5.97;3.92;;;;;;;8.86;100.00;100920.47;5072527;28;20032;-74
2022/12/26 06:28:55;;;;;;;5.65;3.95;;;;;;;8.86;100.00;100921.25;5058096;28;20044;-74
2022/12/26 06:31:22;;;;;;;9.70;3.65;;;;;;;8.85;100.00;100917.03;5059616;28;20055;-74
2022/12/26 06:33:50;;;;;;;10.93;4.18;;;;;;;8.79;100.00;100916.81;5044922;28;20093;-74
2022/12/26 06:36:18;;;;;;;7.13;4.07;;;;;;;8.85;100.00;100911.84;5043211;28;20395;-74
2022/12/26 06:38:44;;;;;;;7.07;3.90;;;;;;;8.80;100.00;100914.06;5061400;28;20027;-74
2022/12/26 06:41:12;;;;;;;10.70;3.83;;;;;;;8.72;100.00;100912.19;5060564;28;20029;-74
2022/12/26 06:43:38;;;;;;;7.93;4.35;;;;;;;8.77;100.00;100917.75;5057330;28;20095;-74
2022/12/26 06:46:06;;;;;;;7.93;4.60;;;;;;;8.82;100.00;100919.91;5055870;28;20180;-74
2022/12/26 06:48:38;;;;;;;8.73;3.55;;;;;;;8.96;100.00;100918.63;5059883;28;20111;-74
2022/12/26 06:51:05;;;;;;;8.57;3.67;;;;;;;8.94;100.00;100910.22;5059752;28;20487;-74
2022/12/26 06:53:30;;;;;;;8.13;4.13;;;;;;;8.88;100.00;100918.53;5055905;28;20029;-74
2022/12/26 06:56:07;;;;;;;7.38;3.58;;;;;;;8.82;100.00;100926.88;5058221;28;20064;-74
2022/12/26 06:58:33;;;;;;;9.27;3.38;;;;;;;8.95;100.00;100924.78;5053379;28;20016;-74
2022/12/26 07:01:15;;;;;;;10.48;3.10;;;;;;;9.01;100.00;100920.81;5062271;28;20479;-74
2022/12/26 07:03:41;;;;;;;5.70;2.85;;;;;;;8.99;100.00;100927.91;5061147;28;20545;-74
2022/12/26 07:06:19;;;;;;;4.25;2.30;;;;;;;9.02;100.00;100936.16;5043720;28;21856;-74
2022/12/26 07:08:45;;;;;;;7.70;4.25;;;;;;;9.04;100.00;100934.28;5058209;28;20111;-74
2022/12/26 07:11:21;;;;;;;5.22;2.70;;;;;;;8.94;100.00;100934.28;5062102;28;20135;-73
2022/12/26 07:13:47;;;;;;;4.20;2.70;;;;;;;8.98;100.00;100934.81;5061130;28;20455;-74
2022/12/26 07:16:13;;;;;;;4.57;2.80;;;;;;;8.95;100.00;100941.09;5057678;28;20036;-74
2022/12/26 07:18:40;;;;;;;7.82;2.85;;;;;;;8.92;100.00;100951.72;5060695;28;20040;-74
2022/12/26 07:21:11;;;;;;;4.28;2.85;;;;;;;8.90;100.00;100955.41;5060982;28;20051;-74
2022/12/26 07:23:37;;;;;;;4.90;2.83;;;;;;;8.88;100.00;100957.34;5035923;28;20118;-74
2022/12/26 07:26:03;;;;;;;3.35;2.63;;;;;;;8.81;100.00;100954.47;5059931;28;20032;-74
2022/12/26 07:28:29;;;;;;;4.32;2.40;;;;;;;8.73;100.00;100951.78;5057719;28;20037;-74
2022/12/26 07:30:56;;;;;;;7.00;3.35;;;;;;;8.83;100.00;100959.50;5063038;28;20037;-74
2022/12/26 07:33:22;;;;;;;4.30;2.10;;;;;;;8.91;100.00;100977.72;5059782;28;20036;-74
2022/12/26 07:35:48;;;;;;;4.22;2.30;;;;;;;8.94;100.00;100974.88;5060995;28;20491;-74
2022/12/26 07:38:13;;;;;;;3.58;1.92;;;;;;;8.89;100.00;100977.03;5062163;28;20036;-74
2022/12/26 07:40:39;;;;;;;2.25;1.70;;;;;;;8.97;100.00;100977.19;5042529;28;20040;-74
2022/12/26 07:43:05;;;;;;;3.88;1.67;;;;;;;8.95;100.00;100973.91;5055786;28;20574;-74
2022/12/26 07:45:30;;;;;;;3.95;1.77;;;;;;;8.90;100.00;100971.75;5056182;28;20142;-74
2022/12/26 07:47:56;;;;;;;4.25;2.15;;;;;;;8.84;100.00;100982.66;5058455;28;20124;-74
2022/12/26 07:50:23;;;;;;;6.63;3.10;;;;;;;8.90;100.00;100955.41;5055321;28;20033;-73
2022/12/26 07:52:49;;;;;;;3.03;1.73;;;;;;;9.01;100.00;100965.59;5059064;28;20151;-74
2022/12/26 07:55:15;;;;;;;7.35;2.40;;;;;;;8.92;100.00;100967.25;5059029;28;20044;-73
2022/12/26 07:57:40;;;;;;;7.47;2.40;;;;;;;8.87;100.00;100963.44;5054366;28;20051;-79
2022/12/26 08:00:07;;;;;;;9.40;1.85;;;;;;;8.87;100.00;100976.38;5042509;28;20040;-73
2022/12/26 08:02:37;;;;;;;4.47;1.80;;;;;;;8.98;100.00;100973.63;5056765;28;20051;-73
2022/12/26 08:05:03;;;;;;;14.43;5.80;;;;;;;8.98;100.00;100965.06;5056293;28;20041;-74
2022/12/26 08:07:28;;;;;;;4.63;1.77;;;;;;;9.00;100.00;100960.56;5069905;28;20037;-74
2022/12/26 08:09:54;;;;;;;3.38;1.92;;;;;;;8.94;100.00;100957.56;5059966;28;20033;-73
2022/12/26 08:12:20;;;;;;;4.75;2.75;;;;;;;8.99;100.00;100957.16;5062506;28;20403;-73
2022/12/26 08:14:46;;;;;;;4.05;1.38;;;;;;;8.96;100.00;100955.66;5062978;28;20040;-73
2022/12/26 08:17:13;;;;;;;2.67;1.05;;;;;;;8.92;100.00;100953.50;5064241;28;20040;-72
2022/12/26 08:19:38;;;;;;;2.08;1.27;;;;;;;9.05;100.00;100954.00;5060103;28;20089;-72
2022/12/26 08:22:04;;;;;;;4.43;2.67;;;;;;;8.90;100.00;100958.81;5062921;28;20028;-72
2022/12/26 08:24:30;;;;;;;4.07;2.38;;;;;;;8.98;100.00;100965.06;5064351;28;20040;-71
2022/12/26 08:26:55;;;;;;;8.63;2.72;;;;;;;8.84;100.00;100964.56;5061848;28;20167;-72
2022/12/26 08:29:21;;;;;;;5.88;2.28;;;;;;;8.85;100.00;100976.50;5061915;28;20070;-72
2022/12/26 08:31:46;;;;;;;5.15;2.42;;;;;;;8.88;100.00;100984.00;5064017;28;20037;-72
2022/12/26 08:34:12;;;;;;;4.18;2.30;;;;;;;8.89;100.00;100988.22;5066690;28;20055;-71
2022/12/26 08:36:38;;;;;;;6.55;3.20;;;;;;;8.90;100.00;100987.25;5047637;28;20032;-71
2022/12/26 08:39:03;;;;;;;3.13;1.40;;;;;;;8.85;100.00;100993.81;5060208;28;20056;-72
2022/12/26 08:41:29;;;;;;;8.77;3.50;;;;;;;8.98;100.00;100989.13;5070635;28;20055;-71
2022/12/26 08:43:54;;;;;;;10.23;2.60;;;;;;;8.90;100.00;100994.22;5042262;28;20052;-71
2022/12/26 08:46:20;;;;;;;7.85;2.55;;;;;;;8.84;100.00;100995.59;5064422;28;20033;-72
2022/12/26 08:48:47;;;;;;;4.18;2.78;;;;;;;8.85;100.00;100994.63;5060869;28;20118;-72
2022/12/26 08:51:16;;;;;;;9.23;4.45;;;;;;;8.93;100.00;100997.34;5067136;28;20025;-71
2022/12/26 08:53:43;;;;;;;12.15;6.20;;;;;;;8.89;100.00;101008.91;5042355;28;20037;-72
2022/12/26 08:56:12;;;;;;;13.05;5.78;;;;;;;8.96;100.00;101009.97;5064593;28;20059;-71
2022/12/26 08:58:38;;;;;;;9.95;4.20;;;;;;;9.06;100.00;101006.53;5065153;28;20032;-71
2022/12/26 09:01:15;;;;;;;5.43;2.70;;;;;;;9.05;100.00;100995.38;5059436;28;20031;-71
2022/12/26 09:03:41;;;;;;;6.95;3.20;;;;;;;9.04;100.00;101004.13;5056749;28;20032;-71
2022/12/26 09:06:08;;;;;;;6.28;2.08;;;;;;;9.03;100.00;101014.59;5059715;28;20776;-71
2022/12/26 09:08:35;;;;;;;6.43;3.15;;;;;;;9.03;100.00;100989.53;5069796;28;20040;-72
2022/12/26 09:11:08;;;;;;;3.50;1.45;;;;;;;9.11;100.00;100994.00;5050626;28;20426;-72
2022/12/26 09:13:35;;;;;;;5.63;1.75;;;;;;;9.09;100.00;100990.75;5057234;28;20025;-72
2022/12/26 09:16:15;;;;;;;3.88;1.13;;;;;;;8.99;100.00;100993.38;5059728;28;20371;-71
2022/12/26 09:18:42;;;;;;;2.47;0.93;;;;;;;9.08;100.00;101000.28;5057401;28;20025;-73
2022/12/26 09:21:09;;;;;;;4.18;1.63;;;;;;;9.02;100.00;100998.25;5060631;28;20040;-71
2022/12/26 09:23:36;;;;;;;2.65;1.00;;;;;;;9.06;100.00;101004.78;5057782;28;20037;-71
2022/12/26 09:26:16;;;;;;;3.97;0.95;;;;;;;9.07;100.00;101005.59;5068430;28;20058;-72
2022/12/26 09:28:42;;;;;;;6.65;1.73;;;;;;;9.04;100.00;101011.03;5064696;28;20498;-72
2022/12/26 09:31:12;;;;;;;3.45;1.30;;;;;;;9.09;100.00;101020.00;5067009;28;20032;-72
2022/12/26 09:33:38;;;;;;;3.47;0.55;;;;;;;9.12;100.00;101031.88;5061261;28;20032;-73
2022/12/26 09:36:12;;;;;;;2.53;1.05;;;;;;;9.18;100.00;101025.31;5066336;28;20024;-71
2022/12/26 09:38:38;;;;;;;3.05;1.33;;;;;;;9.15;100.00;101037.56;5079740;28;20502;-72
2022/12/26 09:41:12;;;;;;;4.60;1.25;;;;;;;9.15;100.00;101040.16;5066643;28;20395;-71
2022/12/26 09:43:49;;;;;;;3.65;0.98;;;;;;;9.12;100.00;101050.78;5052355;28;20415;-73
2022/12/26 09:46:27;;;;;;;5.20;1.08;;;;;;;9.16;100.00;101048.72;5061388;28;20430;-71
2022/12/26 09:49:16;;;;;;;5.22;0.90;;;;;;;9.18;100.00;101046.00;5043940;28;20519;-71
2022/12/26 09:51:47;;;;;;;1.60;0.85;;;;;;;9.23;100.00;101051.56;5048419;28;20040;-72
2022/12/26 09:54:26;;;;;;;4.93;0.90;;;;;;;9.25;100.00;101058.25;5043757;28;20549;-71
2022/12/26 09:56:53;;;;;;;5.78;1.20;;;;;;;9.28;100.00;101051.97;5064855;28;20112;-72
2022/12/26 09:59:23;;;;;;;1.63;0.70;;;;;;;9.34;100.00;101056.56;5059702;28;20079;-71
2022/12/26 10:01:49;;;;;;;4.85;1.00;;;;;;;9.26;100.00;101051.28;5046289;28;20119;-71
2022/12/26 10:04:20;;;;;;;7.93;2.13;;;;;;;9.30;100.00;101050.84;5063213;28;20175;-71
2022/12/26 10:07:13;;;;;;;5.20;1.50;;;;;;;9.32;100.00;101055.88;5065964;28;20077;-71
2022/12/26 10:10:02;;;;;;;;;;;;;;;9.30;100.00;101065.56;5061843;28;20059;-71
2022/12/26 10:12:53;;;;;;;19.27;6.20;;;;;;;9.27;100.00;101056.34;5050104;28;19912;-71
2022/12/26 10:15:33;;;;;;;11.27;3.50;;;;;;;9.37;100.00;101056.28;5056038;28;20074;-71
2022/12/26 10:18:43;;;;;;;15.38;5.30;;;;;;;9.39;100.00;101048.38;5074527;28;20032;-70
2022/12/26 10:21:18;;;;;;;31.58;11.95;;;;;;;9.23;100.00;101047.22;5060850;28;20100;-71
2022/12/26 10:23:48;;;;;;;19.30;7.40;;;;;;;9.27;100.00;101050.34;5055323;28;20044;-71
2022/12/26 10:26:21;;;;;;;27.02;11.57;;;;;;;9.33;100.00;101036.84;5057201;28;20486;-71
2022/12/26 10:28:54;;;;;;;11.05;4.80;;;;;;;9.37;100.00;101040.75;5061709;28;20048;-71
2022/12/26 10:31:44;;;;;;;3.80;1.63;;;;;;;9.49;100.00;101043.97;5059735;28;20029;-71
2022/12/26 10:34:26;;;;;;;6.40;2.10;;;;;;;9.52;100.00;101039.34;5034960;28;20055;-71
2022/12/26 10:36:59;;;;;;;9.73;1.63;;;;;;;9.55;100.00;101041.66;5055350;28;20056;-71
2022/12/26 10:39:34;;;;;;;8.10;1.65;;;;;;;9.55;100.00;101039.06;5061507;28;20086;-71
2022/12/26 10:42:13;;;;;;;3.50;1.50;;;;;;;9.52;100.00;101041.13;5062736;28;20060;-71
2022/12/26 10:44:41;;;;;;;6.30;1.13;;;;;;;9.58;100.00;101040.53;5051127;28;20428;-71
2022/12/26 10:47:27;;;;;;;5.60;1.85;;;;;;;9.67;100.00;101047.44;5059671;28;20036;-71
2022/12/26 10:49:58;;;;;;;8.73;3.25;;;;;;;9.81;100.00;101045.31;5034032;28;20494;-72
2022/12/26 10:52:31;;;;;;;4.88;1.80;;;;;;;9.87;100.00;101040.41;5051131;28;20040;-71
2022/12/26 10:54:59;;;;;;;9.20;2.75;;;;;;;9.97;100.00;101050.69;5058570;28;20040;-71
2022/12/26 10:57:28;;;;;;;7.75;2.38;;;;;;;9.87;100.00;101042.97;5061012;28;20025;-72
2022/12/26 10:59:55;;;;;;;5.57;1.95;;;;;;;9.94;100.00;101036.28;5060786;28;20064;-70
2022/12/26 11:02:22;;;;;;;9.18;2.50;;;;;;;9.95;100.00;101039.66;5062849;28;20539;-71
2022/12/26 11:05:21;;;;;;;6.28;2.72;;;;;;;9.92;100.00;101034.75;5056255;28;20040;-71
2022/12/26 11:07:51;;;;;;;3.55;0.93;;;;;;;9.86;100.00;101030.97;5060289;28;22049;-70
2022/12/26 11:10:20;;;;;;;6.43;0.77;;;;;;;9.81;100.00;101033.19;5054845;28;20036;-70
2022/12/26 11:12:53;;;;;;;3.47;0.80;;;;;;;9.92;100.00;101034.75;5055605;28;20037;-71
2022/12/26 11:15:27;;;;;;;5.93;1.70;;;;;;;10.01;100.00;101028.72;5048263;28;20130;-70
2022/12/26 11:18:05;;;;;;;4.68;0.82;;;;;;;10.06;100.00;101030.88;5071596;28;20033;-71
2022/12/26 11:20:31;;;;;;;3.65;0.70;;;;;;;10.05;99.40;101031.81;5060566;28;20041;-71
2022/12/26 11:23:19;;;;;;;3.08;1.20;;;;;;;10.05;99.51;101050.78;5061767;28;20817;-71
2022/12/26 11:25:51;;;;;;;4.80;0.80;;;;;;;10.12;99.92;101046.63;5002330;28;20725;-71
2022/12/26 11:28:25;;;;;;;5.45;1.00;;;;;;;10.10;100.00;101058.13;5060928;28;20036;-71
2022/12/26 11:30:51;;;;;;;3.80;0.80;;;;;;;10.06;100.00;101044.63;5070231;28;20029;-71
2022/12/26 11:33:27;;;;;;;5.22;0.90;;;;;;;9.95;100.00;101052.63;5053761;28;20041;-71
2022/12/26 11:36:08;;;;;;;9.10;0.85;;;;;;;9.79;100.00;101062.78;5057162;28;20640;-72
2022/12/26 11:38:49;;;;;;;6.97;1.10;;;;;;;9.77;100.00;101054.34;5060369;28;20039;-71
2022/12/26 11:41:32;;;;;;;6.65;1.02;;;;;;;9.65;100.00;101043.38;5064455;28;20047;-72
2022/12/26 11:44:09;;;;;;;4.65;0.77;;;;;;;9.65;100.00;101049.38;5060955;28;20116;-73
2022/12/26 11:46:39;;;;;;;5.65;1.95;;;;;;;9.61;100.00;101049.81;5062548;28;20032;-73
2022/12/26 11:49:15;;;;;;;1.27;0.47;;;;;;;9.60;100.00;101048.97;5062991;28;20119;-72
2022/12/26 11:51:46;;;;;;;1.25;0.63;;;;;;;9.51;100.00;101047.22;5066063;28;20028;-71
2022/12/26 11:54:20;;;;;;;2.95;0.70;;;;;;;9.61;100.00;101045.44;5045863;28;20044;-71
2022/12/26 11:56:46;;;;;;;3.15;0.80;;;;;;;9.69;100.00;101044.72;5050371;28;20073;-71
2022/12/26 11:59:22;;;;;;;3.60;0.70;;;;;;;9.66;100.00;101047.59;5055141;28;20040;-71
2022/12/26 12:02:13;;;;;;;4.93;0.80;;;;;;;9.72;100.00;101054.78;5062547;28;20048;-71
2022/12/26 12:04:40;;;;;;;10.63;0.90;;;;;;;9.77;100.00;101065.53;5054805;28;20514;-71
2022/12/26 12:07:16;;;;;;;3.50;0.85;;;;;;;9.85;100.00;101065.63;5045175;28;20090;-70
2022/12/26 12:09:58;;;;;;;2.20;0.82;;;;;;;9.77;100.00;101064.72;5033129;28;20395;-71
2022/12/26 12:12:50;;;;;;;1.75;0.80;;;;;;;9.67;100.00;101067.34;5061023;28;20789;-71
2022/12/26 12:15:45;;;;;;;5.40;0.93;;;;;;;9.59;100.00;101065.47;5057868;28;20103;-71
2022/12/26 12:18:40;;;;;;;2.40;0.70;;;;;;;9.57;100.00;101082.09;5063162;28;20028;-71
2022/12/26 12:21:11;;;;;;;9.00;1.23;;;;;;;9.57;100.00;101082.09;5066631;28;20114;-71
2022/12/26 12:24:18;;;;;;;3.70;1.00;;;;;;;9.53;100.00;101077.22;5030392;28;20458;-71
2022/12/26 12:26:52;;;;;;;3.78;1.02;;;;;;;9.61;100.00;101071.31;5039276;28;20032;-72
2022/12/26 12:29:32;;;;;;;;;;;;;;;9.49;100.00;101070.69;5061894;28;20048;-71
2022/12/26 12:32:00;;;;;;;1.55;0.60;;;;;;;9.52;100.00;101075.56;5085278;28;19913;-70
2022/12/26 12:35:01;;;;;;;2.10;0.70;;;;;;;9.49;100.00;101081.06;5064335;28;20059;-71
2022/12/26 12:38:17;;;;;;;9.00;2.38;;;;;;;9.43;100.00;101081.59;5064969;28;20089;-71
2022/12/26 12:40:52;;;;;;;2.72;0.90;;;;;;;9.38;100.00;101089.00;5062990;28;20028;-71
2022/12/26 12:43:53;;;;;;;8.70;1.10;;;;;;;9.35;100.00;101092.66;5062880;28;20111;-70
2022/12/26 12:46:34;;;;;;;5.85;1.20;;;;;;;9.41;100.00;101106.81;5059654;28;20105;-71
2022/12/26 12:49:22;;;;;;;6.80;1.30;;;;;;;9.24;100.00;101126.47;5040547;28;20048;-73
2022/12/26 12:52:05;;;;;;;3.90;0.70;;;;;;;8.98;96.80;101122.84;5063703;28;20029;-72
2022/12/26 12:54:52;;;;;;;1.52;0.60;;;;;;;8.84;96.67;101134.41;5034052;28;20048;-72
2022/12/26 12:57:42;;;;;;;1.88;0.82;;;;;;;8.62;97.77;101136.28;5055608;28;20555;-72
2022/12/26 13:00:22;;;;;;;7.95;0.93;;;;;;;8.68;98.24;101127.19;5053669;28;20426;-71
2022/12/26 13:02:57;;;;;;;6.72;1.73;;;;;;;8.63;99.46;101137.94;5062515;28;20115;-72
2022/12/26 13:05:38;;;;;;;4.35;0.88;;;;;;;8.66;99.53;101134.25;5057744;28;20086;-72
2022/12/26 13:08:15;;;;;;;2.30;0.70;;;;;;;8.65;98.83;101138.63;5059474;28;20123;-72
2022/12/26 13:10:55;;;;;;;5.13;0.90;;;;;;;8.63;99.15;101135.34;5059115;28;20032;-71
2022/12/26 13:13:29;;;;;;;4.28;1.30;;;;;;;8.57;98.84;101136.72;5037560;28;20036;-72
2022/12/26 13:16:13;;;;;;;4.88;1.73;;;;;;;8.65;99.26;101142.97;5062070;28;20037;-72
2022/12/26 13:18:48;;;;;;;3.75;1.55;;;;;;;8.63;99.76;101144.88;5062769;28;20033;-71
2022/12/26 13:21:15;;;;;;;3.33;1.25;;;;;;;8.64;99.62;101151.69;5047467;28;20060;-71
2022/12/26 13:26:47;;;;;;;4.85;1.10;;;;;;;8.52;99.32;101156.16;5060318;28;20025;-71
2022/12/26 13:29:16;;;;;;;6.00;1.10;;;;;;;8.63;99.94;101161.22;5014542;28;20056;-71
2022/12/26 13:31:43;;;;;;;8.18;1.30;;;;;;;8.66;99.43;101162.69;5053076;28;20041;-71
2022/12/26 13:34:18;;;;;;;2.85;0.93;;;;;;;8.65;99.16;101171.41;5056317;28;20403;-71
2022/12/26 13:36:43;;;;;;;4.13;0.98;;;;;;;8.65;98.42;101168.84;5066091;28;20047;-71
2022/12/26 13:39:32;;;;;;;6.60;1.05;;;;;;;8.80;96.69;101169.22;5061238;28;20564;-71
2022/12/26 13:44:51;;;;;;;;;;;;;;;8.57;93.88;101172.91;5058642;28;20040;-72
2022/12/26 13:47:38;;;;;;;5.30;1.60;;;;;;;8.53;93.39;101173.28;5056016;28;19928;-72
2022/12/26 13:50:42;;;;;;;7.18;1.00;;;;;;;8.47;94.65;101179.00;5024668;28;20507;-71
2022/12/26 13:53:24;;;;;;;10.90;1.10;;;;;;;8.40;94.82;101178.69;5062314;28;20025;-72
2022/12/26 13:55:50;;;;;;;4.47;1.00;;;;;;;8.37;94.43;101189.28;5062364;28;20033;-71
2022/12/26 13:58:38;;;;;;;7.22;1.02;;;;;;;8.27;94.37;101188.41;5060679;28;20372;-71